createdAt,value
2023-02-27T00:00:05.498Z,-1.82
2023-02-27T00:00:15.476Z,-1.93
2023-02-27T00:00:25.506Z,-1.96
2023-02-27T00:00:35.463Z,-1.93
2023-02-27T00:00:45.459Z,-1.98
2023-02-27T00:00:55.442Z,-2.03
2023-02-27T00:01:05.481Z,-2.00
2023-02-27T00:01:15.446Z,-2.17
2023-02-27T00:01:28.593Z,-2.08
2023-02-27T00:01:35.436Z,-2.02
2023-02-27T00:01:45.465Z,-2.20
2023-02-27T00:01:55.447Z,-1.90
2023-02-27T00:02:05.438Z,-1.90
2023-02-27T00:02:15.461Z,-1.88
2023-02-27T00:02:25.556Z,-1.88
2023-02-27T00:02:35.502Z,-1.92
2023-02-27T00:02:45.492Z,-2.11
2023-02-27T00:02:55.543Z,-1.70
2023-02-27T00:03:05.442Z,-1.85
2023-02-27T00:03:15.445Z,-1.98
2023-02-27T00:03:25.462Z,-2.11
2023-02-27T00:03:35.493Z,-1.92
2023-02-27T00:03:45.471Z,-2.03
2023-02-27T00:03:55.516Z,-2.10
2023-02-27T00:04:05.494Z,-2.05
2023-02-27T00:04:15.526Z,-1.90
2023-02-27T00:04:26.462Z,-1.85
2023-02-27T00:04:35.522Z,-1.96
2023-02-27T00:04:45.439Z,-1.80
2023-02-27T00:04:55.420Z,-1.98
2023-02-27T00:05:06.393Z,-1.96
2023-02-27T00:05:15.443Z,-2.00
2023-02-27T00:05:25.431Z,-1.92
2023-02-27T00:05:35.502Z,-1.85
2023-02-27T00:05:46.400Z,-2.05
2023-02-27T00:05:55.440Z,-1.96
2023-02-27T00:06:05.428Z,-2.11
2023-02-27T00:06:15.444Z,-2.06
2023-02-27T00:06:25.448Z,-2.03
2023-02-27T00:06:35.446Z,-1.88
2023-02-27T00:06:45.539Z,-2.08
2023-02-27T00:06:55.436Z,-2.26
2023-02-27T00:07:05.414Z,-1.85
2023-02-27T00:07:15.413Z,-2.03
2023-02-27T00:07:25.413Z,-1.98
2023-02-27T00:07:35.443Z,-1.99
2023-02-27T00:07:45.421Z,-1.90
2023-02-27T00:07:56.489Z,-2.10
2023-02-27T00:08:05.512Z,-2.16
2023-02-27T00:08:15.413Z,-2.08
2023-02-27T00:08:25.425Z,-1.92
2023-02-27T00:08:38.583Z,-1.90
2023-02-27T00:08:45.573Z,-2.11
2023-02-27T00:08:55.545Z,-2.05
2023-02-27T00:09:05.498Z,-1.78
2023-02-27T00:09:15.425Z,-1.70
2023-02-27T00:09:25.419Z,-2.06
2023-02-27T00:09:35.428Z,-1.90
2023-02-27T00:09:45.428Z,-1.98
2023-02-27T00:09:55.424Z,-2.10
2023-02-27T00:10:05.508Z,-1.87
2023-02-27T00:10:15.435Z,-1.82
2023-02-27T00:10:25.432Z,-1.82
2023-02-27T00:10:35.454Z,-1.99
2023-02-27T00:10:45.500Z,-1.87
2023-02-27T00:10:55.406Z,-2.08
2023-02-27T00:11:05.410Z,-1.96
2023-02-27T00:11:16.380Z,-1.82
2023-02-27T00:11:25.934Z,-1.85
2023-02-27T00:11:35.412Z,-1.93
2023-02-27T00:11:45.403Z,-1.82
2023-02-27T00:11:55.404Z,-2.11
2023-02-27T00:12:05.547Z,-1.96
2023-02-27T00:12:15.412Z,-1.74
2023-02-27T00:12:25.446Z,-1.84
2023-02-27T00:12:36.395Z,-1.88
2023-02-27T00:12:45.462Z,-1.69
2023-02-27T00:12:55.444Z,-1.81
2023-02-27T00:13:05.528Z,-1.93
2023-02-27T00:13:15.489Z,-1.82
2023-02-27T00:13:25.392Z,-1.77
2023-02-27T00:13:35.393Z,-1.77
2023-02-27T00:13:45.465Z,-1.78
2023-02-27T00:13:55.520Z,-1.81
2023-02-27T00:14:05.398Z,-1.67
2023-02-27T00:14:15.395Z,-1.64
2023-02-27T00:14:25.392Z,-1.85
2023-02-27T00:14:36.404Z,-1.85
2023-02-27T00:14:45.424Z,-1.69
2023-02-27T00:14:58.505Z,-1.95
2023-02-27T00:15:05.396Z,-1.60
2023-02-27T00:15:15.401Z,-1.81
2023-02-27T00:15:25.407Z,-1.88
2023-02-27T00:15:35.394Z,-1.99
2023-02-27T00:15:45.412Z,-1.67
2023-02-27T00:15:55.476Z,-1.92
2023-02-27T00:16:05.418Z,-1.81
2023-02-27T00:16:15.425Z,-1.78
2023-02-27T00:16:25.423Z,-1.75
2023-02-27T00:16:35.397Z,-1.93
2023-02-27T00:16:45.396Z,-1.75
2023-02-27T00:16:55.391Z,-1.75
2023-02-27T00:17:05.441Z,-1.82
2023-02-27T00:17:15.383Z,-1.77
2023-02-27T00:17:25.379Z,-1.70
2023-02-27T00:17:35.412Z,-1.80
2023-02-27T00:17:45.490Z,-1.99
2023-02-27T00:17:55.452Z,-2.02
2023-02-27T00:18:05.407Z,-1.80
2023-02-27T00:18:15.378Z,-1.63
2023-02-27T00:18:25.380Z,-1.84
2023-02-27T00:18:36.342Z,-1.80
2023-02-27T00:18:45.422Z,-1.78
2023-02-27T00:18:55.381Z,-1.77
2023-02-27T00:19:05.457Z,-1.84
2023-02-27T00:19:15.389Z,-1.95
2023-02-27T00:19:25.377Z,-1.85
2023-02-27T00:19:35.419Z,-1.81
2023-02-27T00:19:45.418Z,-1.78
2023-02-27T00:19:55.373Z,-1.82
2023-02-27T00:20:05.423Z,-1.85
2023-02-27T00:20:15.508Z,-1.80
2023-02-27T00:20:25.409Z,-1.93
2023-02-27T00:20:35.363Z,-1.96
2023-02-27T00:20:45.378Z,-1.85
2023-02-27T00:20:55.361Z,-1.99
2023-02-27T00:21:05.879Z,-2.00
2023-02-27T00:21:15.543Z,-1.88
2023-02-27T00:21:25.844Z,-1.96
2023-02-27T00:21:36.843Z,-1.84
2023-02-27T00:21:45.410Z,-1.82
2023-02-27T00:21:55.376Z,-1.78
2023-02-27T00:22:05.370Z,-1.95
2023-02-27T00:22:15.392Z,-2.00
2023-02-27T00:22:25.407Z,-1.85
2023-02-27T00:22:35.412Z,-2.13
2023-02-27T00:22:45.893Z,-1.98
2023-02-27T00:22:55.516Z,-2.02
2023-02-27T00:23:05.384Z,-1.98
2023-02-27T00:23:15.415Z,-2.00
2023-02-27T00:23:25.354Z,-2.10
2023-02-27T00:23:35.388Z,-2.02
2023-02-27T00:23:45.424Z,-1.92
2023-02-27T00:23:55.373Z,-2.16
2023-02-27T00:24:05.354Z,-2.03
2023-02-27T00:24:15.455Z,-1.81
2023-02-27T00:24:25.353Z,-1.93
2023-02-27T00:24:35.367Z,-2.08
2023-02-27T00:24:45.403Z,-1.96
2023-02-27T00:24:55.374Z,-1.88
2023-02-27T00:25:05.381Z,-2.17
2023-02-27T00:25:15.392Z,-2.11
2023-02-27T00:25:25.887Z,-1.84
2023-02-27T00:25:35.372Z,-2.02
2023-02-27T00:25:45.395Z,-1.93
2023-02-27T00:25:55.388Z,-1.81
2023-02-27T00:26:05.363Z,-2.06
2023-02-27T00:26:15.350Z,-1.93
2023-02-27T00:26:25.380Z,-1.82
2023-02-27T00:26:35.381Z,-1.85
2023-02-27T00:26:45.353Z,-2.08
2023-02-27T00:26:55.356Z,-2.03
2023-02-27T00:27:05.878Z,-2.00
2023-02-27T00:27:15.443Z,-1.90
2023-02-27T00:27:25.467Z,-2.10
2023-02-27T00:27:35.458Z,-2.03
2023-02-27T00:27:45.574Z,-2.03
2023-02-27T00:27:55.874Z,-1.96
2023-02-27T00:28:05.387Z,-1.81
2023-02-27T00:28:15.342Z,-1.82
2023-02-27T00:28:25.458Z,-2.06
2023-02-27T00:28:37.963Z,-2.06
2023-02-27T00:28:45.337Z,-2.13
2023-02-27T00:28:55.351Z,-1.99
2023-02-27T00:29:05.334Z,-1.88
2023-02-27T00:29:15.337Z,-2.00
2023-02-27T00:29:25.396Z,-1.90
2023-02-27T00:29:35.383Z,-1.98
2023-02-27T00:29:45.341Z,-1.87
2023-02-27T00:29:55.349Z,-1.81
2023-02-27T00:30:05.334Z,-1.81
2023-02-27T00:30:15.342Z,-2.03
2023-02-27T00:30:25.389Z,-1.92
2023-02-27T00:30:35.380Z,-2.03
2023-02-27T00:30:45.433Z,-2.08
2023-02-27T00:30:55.388Z,-1.96
2023-02-27T00:31:05.443Z,-1.81
2023-02-27T00:31:15.415Z,-1.95
2023-02-27T00:31:25.765Z,-2.17
2023-02-27T00:31:35.353Z,-1.93
2023-02-27T00:31:45.636Z,-2.13
2023-02-27T00:31:55.399Z,-1.98
2023-02-27T00:32:05.405Z,-1.87
2023-02-27T00:32:15.366Z,-1.99
2023-02-27T00:32:25.390Z,-1.81
2023-02-27T00:32:35.375Z,-2.11
2023-02-27T00:32:45.343Z,-1.99
2023-02-27T00:32:55.330Z,-2.00
2023-02-27T00:33:05.330Z,-2.05
2023-02-27T00:33:15.343Z,-1.95
2023-02-27T00:33:25.885Z,-1.93
2023-02-27T00:33:35.434Z,-1.90
2023-02-27T00:33:45.877Z,-2.02
2023-02-27T00:33:55.340Z,-1.84
2023-02-27T00:34:05.320Z,-2.02
2023-02-27T00:34:15.307Z,-2.00
2023-02-27T00:34:25.337Z,-2.00
2023-02-27T00:34:35.371Z,-1.87
2023-02-27T00:34:45.351Z,-2.08
2023-02-27T00:34:55.312Z,-1.99
2023-02-27T00:35:05.354Z,-1.96
2023-02-27T00:35:15.320Z,-2.02
2023-02-27T00:35:25.310Z,-1.88
2023-02-27T00:35:35.324Z,-1.93
2023-02-27T00:35:45.356Z,-1.98
2023-02-27T00:35:55.408Z,-1.96
2023-02-27T00:36:05.306Z,-1.99
2023-02-27T00:36:15.313Z,-1.95
2023-02-27T00:36:25.842Z,-1.87
2023-02-27T00:36:35.338Z,-2.02
2023-02-27T00:36:45.326Z,-1.96
2023-02-27T00:36:55.313Z,-1.98
2023-02-27T00:37:05.327Z,-1.90
2023-02-27T00:37:15.328Z,-1.99
2023-02-27T00:37:25.315Z,-1.75
2023-02-27T00:37:35.312Z,-1.67
2023-02-27T00:37:45.318Z,-1.84
2023-02-27T00:37:55.312Z,-2.00
2023-02-27T00:38:05.301Z,-1.85
2023-02-27T00:38:15.291Z,-1.75
2023-02-27T00:38:25.310Z,-1.93
2023-02-27T00:38:35.496Z,-1.80
2023-02-27T00:38:45.298Z,-1.82
2023-02-27T00:38:57.970Z,-1.67
2023-02-27T00:39:05.368Z,-1.67
2023-02-27T00:39:15.300Z,-2.03
2023-02-27T00:39:25.878Z,-1.84
2023-02-27T00:39:35.314Z,-1.85
2023-02-27T00:39:45.367Z,-1.96
2023-02-27T00:39:55.341Z,-1.98
2023-02-27T00:40:05.373Z,-1.75
2023-02-27T00:40:15.981Z,-1.92
2023-02-27T00:40:25.298Z,-1.88
2023-02-27T00:40:35.298Z,-1.77
2023-02-27T00:40:45.291Z,-1.92
2023-02-27T00:40:55.337Z,-1.87
2023-02-27T00:41:05.319Z,-1.81
2023-02-27T00:41:15.300Z,-1.88
2023-02-27T00:41:25.637Z,-1.87
2023-02-27T00:41:35.314Z,-1.74
2023-02-27T00:41:45.296Z,-2.00
2023-02-27T00:41:55.309Z,-1.87
2023-02-27T00:42:05.310Z,-1.81
2023-02-27T00:42:15.301Z,-1.80
2023-02-27T00:42:25.289Z,-1.99
2023-02-27T00:42:35.328Z,-1.87
2023-02-27T00:42:45.309Z,-1.75
2023-02-27T00:42:55.277Z,-2.03
2023-02-27T00:43:05.285Z,-1.92
2023-02-27T00:43:15.324Z,-1.99
2023-02-27T00:43:25.282Z,-1.92
2023-02-27T00:43:35.383Z,-2.00
2023-02-27T00:43:45.277Z,-2.05
2023-02-27T00:43:55.312Z,-2.05
2023-02-27T00:44:05.281Z,-1.98
2023-02-27T00:44:15.344Z,-1.93
2023-02-27T00:44:25.273Z,-1.95
2023-02-27T00:44:35.278Z,-1.92
2023-02-27T00:44:45.317Z,-2.13
2023-02-27T00:44:55.347Z,-2.14
2023-02-27T00:45:05.279Z,-2.06
2023-02-27T00:45:15.273Z,-2.00
2023-02-27T00:45:25.295Z,-1.85
2023-02-27T00:45:35.887Z,-2.14
2023-02-27T00:45:45.282Z,-2.00
2023-02-27T00:45:55.268Z,-2.08
2023-02-27T00:46:05.296Z,-2.13
2023-02-27T00:46:15.938Z,-2.11
2023-02-27T00:46:25.335Z,-2.03
2023-02-27T00:46:35.297Z,-1.99
2023-02-27T00:46:45.369Z,-1.98
2023-02-27T00:46:55.353Z,-2.11
2023-02-27T00:47:05.276Z,-1.98
2023-02-27T00:47:15.273Z,-1.99
2023-02-27T00:47:25.279Z,-2.11
2023-02-27T00:47:35.272Z,-2.03
2023-02-27T00:47:45.298Z,-2.11
2023-02-27T00:47:55.267Z,-2.23
2023-02-27T00:48:05.269Z,-2.03
2023-02-27T00:48:15.306Z,-2.06
2023-02-27T00:48:25.324Z,-2.06
2023-02-27T00:48:35.266Z,-2.03
2023-02-27T00:48:45.265Z,-2.11
2023-02-27T00:48:55.270Z,-2.10
2023-02-27T00:49:05.431Z,-2.06
2023-02-27T00:49:15.247Z,-2.20
2023-02-27T00:49:25.251Z,-2.03
2023-02-27T00:49:35.262Z,-2.17
2023-02-27T00:49:45.256Z,-2.13
2023-02-27T00:49:55.278Z,-2.29
2023-02-27T00:50:05.292Z,-1.98
2023-02-27T00:50:15.368Z,-1.92
2023-02-27T00:50:25.297Z,-2.08
2023-02-27T00:50:35.269Z,-2.08
2023-02-27T00:50:45.260Z,-1.95
2023-02-27T00:50:55.296Z,-1.96
2023-02-27T00:51:05.294Z,-1.99
2023-02-27T00:51:15.438Z,-2.03
2023-02-27T00:51:25.640Z,-2.00
2023-02-27T00:51:35.245Z,-2.05
2023-02-27T00:51:45.243Z,-2.23
2023-02-27T00:51:55.274Z,-2.18
2023-02-27T00:52:05.895Z,-2.00
2023-02-27T00:52:15.244Z,-2.13
2023-02-27T00:52:25.263Z,-2.00
2023-02-27T00:52:35.239Z,-2.17
2023-02-27T00:52:45.276Z,-2.10
2023-02-27T00:52:55.233Z,-2.08
2023-02-27T00:53:05.240Z,-1.96
2023-02-27T00:53:15.241Z,-2.14
2023-02-27T00:53:25.235Z,-2.24
2023-02-27T00:53:35.249Z,-2.02
2023-02-27T00:53:45.249Z,-2.20
2023-02-27T00:53:55.891Z,-2.14
2023-02-27T00:54:05.252Z,-2.05
2023-02-27T00:54:15.251Z,-2.24
2023-02-27T00:54:25.235Z,-2.17
2023-02-27T00:54:35.307Z,-2.16
2023-02-27T00:54:45.245Z,-2.11
2023-02-27T00:54:55.249Z,-2.03
2023-02-27T00:55:05.225Z,-2.03
2023-02-27T00:55:15.289Z,-2.28
2023-02-27T00:55:27.180Z,-2.16
2023-02-27T00:55:35.245Z,-2.23
2023-02-27T00:55:45.242Z,-2.17
2023-02-27T00:55:55.235Z,-2.18
2023-02-27T00:56:05.257Z,-2.14
2023-02-27T00:56:15.258Z,-2.26
2023-02-27T00:56:25.233Z,-2.17
2023-02-27T00:56:35.879Z,-2.03
2023-02-27T00:56:45.304Z,-2.23
2023-02-27T00:56:55.236Z,-2.06
2023-02-27T00:57:05.248Z,-2.28
2023-02-27T00:57:15.305Z,-2.13
2023-02-27T00:57:25.345Z,-2.20
2023-02-27T00:57:35.328Z,-2.33
2023-02-27T00:57:45.370Z,-2.26
2023-02-27T00:57:55.370Z,-2.13
2023-02-27T00:58:05.225Z,-2.35
2023-02-27T00:58:15.224Z,-2.39
2023-02-27T00:58:25.237Z,-2.33
2023-02-27T00:58:35.254Z,-2.33
2023-02-27T00:58:45.920Z,-2.26
2023-02-27T00:58:55.257Z,-2.47
2023-02-27T00:59:05.249Z,-2.23
2023-02-27T00:59:15.897Z,-2.20
2023-02-27T00:59:25.227Z,-2.17
2023-02-27T00:59:35.226Z,-2.08
2023-02-27T00:59:45.222Z,-2.36
2023-02-27T00:59:55.224Z,-2.21
2023-02-27T01:00:05.256Z,-2.20
2023-02-27T01:00:15.220Z,-2.14
2023-02-27T01:00:25.356Z,-2.33
2023-02-27T01:00:35.273Z,-2.18
2023-02-27T01:00:45.930Z,-2.40
2023-02-27T01:00:55.363Z,-2.36
2023-02-27T01:01:05.306Z,-2.23
2023-02-27T01:01:15.312Z,-2.48
2023-02-27T01:01:25.647Z,-2.26
2023-02-27T01:01:35.215Z,-2.21
2023-02-27T01:01:45.237Z,-2.11
2023-02-27T01:01:55.374Z,-2.17
2023-02-27T01:02:05.214Z,-2.24
2023-02-27T01:02:15.251Z,-2.29
2023-02-27T01:02:25.273Z,-2.16
2023-02-27T01:02:35.290Z,-1.93
2023-02-27T01:02:45.272Z,-2.38
2023-02-27T01:02:55.920Z,-2.05
2023-02-27T01:03:05.210Z,-2.18
2023-02-27T01:03:15.231Z,-2.24
2023-02-27T01:03:25.299Z,-2.35
2023-02-27T01:03:35.218Z,-2.39
2023-02-27T01:03:45.241Z,-2.11
2023-02-27T01:03:55.231Z,-2.10
2023-02-27T01:04:05.883Z,-2.29
2023-02-27T01:04:15.327Z,-2.05
2023-02-27T01:04:25.235Z,-2.24
2023-02-27T01:04:35.223Z,-2.11
2023-02-27T01:04:45.232Z,-2.23
2023-02-27T01:04:55.233Z,-2.13
2023-02-27T01:05:05.191Z,-2.10
2023-02-27T01:05:15.212Z,-2.17
2023-02-27T01:05:25.193Z,-2.17
2023-02-27T01:05:35.253Z,-2.28
2023-02-27T01:05:45.233Z,-2.21
2023-02-27T01:05:55.196Z,-2.21
2023-02-27T01:06:05.227Z,-2.23
2023-02-27T01:06:15.215Z,-2.14
2023-02-27T01:06:25.197Z,-2.38
2023-02-27T01:06:35.226Z,-2.17
2023-02-27T01:06:45.223Z,-2.08
2023-02-27T01:06:55.224Z,-2.24
2023-02-27T01:07:05.206Z,-2.16
2023-02-27T01:07:15.218Z,-2.23
2023-02-27T01:07:25.245Z,-2.16
2023-02-27T01:07:35.241Z,-2.17
2023-02-27T01:07:45.208Z,-1.99
2023-02-27T01:07:55.210Z,-2.10
2023-02-27T01:08:05.239Z,-2.08
2023-02-27T01:08:15.192Z,-2.17
2023-02-27T01:08:25.204Z,-2.23
2023-02-27T01:08:35.216Z,-2.14
2023-02-27T01:08:45.183Z,-2.06
2023-02-27T01:08:55.227Z,-2.13
2023-02-27T01:09:05.201Z,-2.03
2023-02-27T01:09:15.218Z,-2.28
2023-02-27T01:09:25.192Z,-2.06
2023-02-27T01:09:35.256Z,-2.20
2023-02-27T01:09:45.214Z,-2.18
2023-02-27T01:09:55.176Z,-2.16
2023-02-27T01:10:05.172Z,-2.10
2023-02-27T01:10:15.184Z,-2.03
2023-02-27T01:10:25.195Z,-2.18
2023-02-27T01:10:35.210Z,-2.10
2023-02-27T01:10:45.246Z,-2.29
2023-02-27T01:10:55.183Z,-2.17
2023-02-27T01:11:05.262Z,-2.21
2023-02-27T01:11:15.229Z,-2.03
2023-02-27T01:11:25.622Z,-2.05
2023-02-27T01:11:35.246Z,-2.16
2023-02-27T01:11:45.311Z,-2.16
2023-02-27T01:11:55.217Z,-2.14
2023-02-27T01:12:05.169Z,-2.17
2023-02-27T01:12:15.204Z,-2.18
2023-02-27T01:12:25.166Z,-2.05
2023-02-27T01:12:35.256Z,-2.23
2023-02-27T01:12:45.163Z,-2.23
2023-02-27T01:12:55.164Z,-2.06
2023-02-27T01:13:05.207Z,-2.18
2023-02-27T01:13:15.290Z,-2.29
2023-02-27T01:13:25.241Z,-2.28
2023-02-27T01:13:35.179Z,-2.29
2023-02-27T01:13:45.193Z,-2.23
2023-02-27T01:13:55.169Z,-2.23
2023-02-27T01:14:05.169Z,-2.23
2023-02-27T01:14:15.171Z,-2.39
2023-02-27T01:14:25.178Z,-2.29
2023-02-27T01:14:35.175Z,-2.24
2023-02-27T01:14:45.172Z,-2.42
2023-02-27T01:14:55.158Z,-2.39
2023-02-27T01:15:05.166Z,-2.40
2023-02-27T01:15:15.154Z,-2.23
2023-02-27T01:15:25.234Z,-2.36
2023-02-27T01:15:35.263Z,-2.17
2023-02-27T01:15:45.164Z,-2.24
2023-02-27T01:15:55.225Z,-2.20
2023-02-27T01:16:05.256Z,-2.39
2023-02-27T01:16:15.225Z,-2.38
2023-02-27T01:16:25.202Z,-2.24
2023-02-27T01:16:35.193Z,-2.32
2023-02-27T01:16:45.214Z,-2.28
2023-02-27T01:16:55.174Z,-2.42
2023-02-27T01:17:05.156Z,-2.39
2023-02-27T01:17:15.168Z,-2.40
2023-02-27T01:17:25.193Z,-2.54
2023-02-27T01:17:35.214Z,-2.43
2023-02-27T01:17:45.161Z,-2.47
2023-02-27T01:17:55.190Z,-2.48
2023-02-27T01:18:05.169Z,-2.36
2023-02-27T01:18:15.147Z,-2.42
2023-02-27T01:18:25.155Z,-2.29
2023-02-27T01:18:35.166Z,-2.38
2023-02-27T01:18:45.147Z,-2.36
2023-02-27T01:18:55.179Z,-2.35
2023-02-27T01:19:05.145Z,-2.39
2023-02-27T01:19:15.712Z,-2.43
2023-02-27T01:19:25.181Z,-2.45
2023-02-27T01:19:35.938Z,-2.56
2023-02-27T01:19:45.161Z,-2.18
2023-02-27T01:19:55.161Z,-2.51
2023-02-27T01:20:05.154Z,-2.47
2023-02-27T01:20:15.275Z,-2.40
2023-02-27T01:20:25.150Z,-2.38
2023-02-27T01:20:35.144Z,-2.50
2023-02-27T01:20:45.155Z,-2.51
2023-02-27T01:20:55.132Z,-2.47
2023-02-27T01:21:05.186Z,-2.47
2023-02-27T01:21:15.158Z,-2.47
2023-02-27T01:21:25.607Z,-2.40
2023-02-27T01:21:35.177Z,-2.57
2023-02-27T01:21:45.249Z,-2.53
2023-02-27T01:21:55.136Z,-2.40
2023-02-27T01:22:05.140Z,-2.42
2023-02-27T01:22:15.155Z,-2.60
2023-02-27T01:22:25.224Z,-2.61
2023-02-27T01:22:35.154Z,-2.60
2023-02-27T01:22:45.285Z,-2.51
2023-02-27T01:22:55.183Z,-2.47
2023-02-27T01:23:05.138Z,-2.28
2023-02-27T01:23:21.958Z,-2.43
2023-02-27T01:23:25.135Z,-2.40
2023-02-27T01:23:35.888Z,-2.42
2023-02-27T01:23:45.180Z,-2.36
2023-02-27T01:23:55.140Z,-2.45
2023-02-27T01:24:05.125Z,-2.28
2023-02-27T01:24:15.123Z,-2.47
2023-02-27T01:24:25.121Z,-2.61
2023-02-27T01:24:35.129Z,-2.47
2023-02-27T01:24:45.130Z,-2.71
2023-02-27T01:24:55.942Z,-2.63
2023-02-27T01:25:05.123Z,-2.42
2023-02-27T01:25:15.132Z,-2.56
2023-02-27T01:25:25.983Z,-2.48
2023-02-27T01:25:35.166Z,-2.56
2023-02-27T01:25:45.118Z,-2.58
2023-02-27T01:25:55.904Z,-2.63
2023-02-27T01:26:05.167Z,-2.66
2023-02-27T01:26:15.216Z,-2.64
2023-02-27T01:26:27.922Z,-2.54
2023-02-27T01:26:35.125Z,-2.71
2023-02-27T01:26:45.122Z,-2.69
2023-02-27T01:26:55.141Z,-2.68
2023-02-27T01:27:05.138Z,-2.57
2023-02-27T01:27:15.128Z,-2.78
2023-02-27T01:27:25.116Z,-2.68
2023-02-27T01:27:35.113Z,-2.86
2023-02-27T01:27:45.119Z,-2.66
2023-02-27T01:27:55.141Z,-2.74
2023-02-27T01:28:05.112Z,-2.69
2023-02-27T01:28:15.121Z,-2.53
2023-02-27T01:28:25.961Z,-2.51
2023-02-27T01:28:35.105Z,-2.63
2023-02-27T01:28:45.120Z,-2.50
2023-02-27T01:28:55.143Z,-2.89
2023-02-27T01:29:06.497Z,-2.64
2023-02-27T01:29:15.265Z,-2.57
2023-02-27T01:29:25.129Z,-2.64
2023-02-27T01:29:35.106Z,-2.56
2023-02-27T01:29:45.126Z,-2.54
2023-02-27T01:29:55.149Z,-2.50
2023-02-27T01:30:05.116Z,-2.53
2023-02-27T01:30:15.918Z,-2.68
2023-02-27T01:30:25.268Z,-2.64
2023-02-27T01:30:35.135Z,-2.61
2023-02-27T01:30:45.134Z,-2.58
2023-02-27T01:30:55.177Z,-2.38
2023-02-27T01:31:05.103Z,-2.72
2023-02-27T01:31:15.186Z,-2.63
2023-02-27T01:31:25.825Z,-2.69
2023-02-27T01:31:35.121Z,-2.76
2023-02-27T01:31:45.181Z,-2.54
2023-02-27T01:31:55.205Z,-2.47
2023-02-27T01:32:05.218Z,-2.63
2023-02-27T01:32:15.225Z,-2.50
2023-02-27T01:32:25.318Z,-2.68
2023-02-27T01:32:35.159Z,-2.61
2023-02-27T01:32:45.337Z,-2.68
2023-02-27T01:32:55.104Z,-2.60
2023-02-27T01:33:05.118Z,-2.61
2023-02-27T01:33:15.120Z,-2.69
2023-02-27T01:33:25.098Z,-2.71
2023-02-27T01:33:35.112Z,-2.75
2023-02-27T01:33:45.179Z,-2.51
2023-02-27T01:33:55.115Z,-2.45
2023-02-27T01:34:05.122Z,-2.64
2023-02-27T01:34:15.124Z,-2.66
2023-02-27T01:34:25.102Z,-2.72
2023-02-27T01:34:35.093Z,-2.76
2023-02-27T01:34:45.918Z,-2.72
2023-02-27T01:34:55.096Z,-2.48
2023-02-27T01:35:05.106Z,-2.72
2023-02-27T01:35:15.182Z,-2.72
2023-02-27T01:35:25.101Z,-2.68
2023-02-27T01:35:35.088Z,-2.68
2023-02-27T01:35:45.106Z,-2.72
2023-02-27T01:35:55.198Z,-2.68
2023-02-27T01:36:05.101Z,-2.82
2023-02-27T01:36:15.111Z,-2.68
2023-02-27T01:36:25.172Z,-2.71
2023-02-27T01:36:35.161Z,-2.71
2023-02-27T01:36:45.902Z,-2.94
2023-02-27T01:36:55.121Z,-2.72
2023-02-27T01:37:05.076Z,-2.66
2023-02-27T01:37:15.078Z,-2.76
2023-02-27T01:37:25.078Z,-2.82
2023-02-27T01:37:35.135Z,-2.64
2023-02-27T01:37:45.082Z,-2.82
2023-02-27T01:37:55.078Z,-2.72
2023-02-27T01:38:05.084Z,-2.72
2023-02-27T01:38:15.093Z,-2.53
2023-02-27T01:38:25.119Z,-2.78
2023-02-27T01:38:35.095Z,-2.66
2023-02-27T01:38:45.094Z,-2.56
2023-02-27T01:38:55.129Z,-2.81
2023-02-27T01:39:05.074Z,-2.76
2023-02-27T01:39:15.096Z,-2.86
2023-02-27T01:39:25.081Z,-2.74
2023-02-27T01:39:35.069Z,-2.71
2023-02-27T01:39:45.103Z,-2.58
2023-02-27T01:39:55.093Z,-2.69
2023-02-27T01:40:05.075Z,-2.45
2023-02-27T01:40:15.111Z,-2.63
2023-02-27T01:40:25.085Z,-2.54
2023-02-27T01:40:35.899Z,-2.82
2023-02-27T01:40:45.075Z,-2.75
2023-02-27T01:40:55.067Z,-2.81
2023-02-27T01:41:05.082Z,-2.75
2023-02-27T01:41:15.114Z,-2.47
2023-02-27T01:41:25.407Z,-2.64
2023-02-27T01:41:35.110Z,-2.79
2023-02-27T01:41:45.106Z,-2.58
2023-02-27T01:41:55.069Z,-2.66
2023-02-27T01:42:05.898Z,-2.78
2023-02-27T01:42:15.102Z,-2.75
2023-02-27T01:42:25.150Z,-2.71
2023-02-27T01:42:35.912Z,-2.66
2023-02-27T01:42:45.177Z,-2.76
2023-02-27T01:42:55.895Z,-2.57
2023-02-27T01:43:05.087Z,-2.57
2023-02-27T01:43:15.076Z,-2.58
2023-02-27T01:43:25.070Z,-2.71
2023-02-27T01:43:35.069Z,-2.75
2023-02-27T01:43:45.083Z,-2.64
2023-02-27T01:43:55.056Z,-2.87
2023-02-27T01:44:05.085Z,-2.57
2023-02-27T01:44:15.075Z,-2.54
2023-02-27T01:44:25.050Z,-2.69
2023-02-27T01:44:35.112Z,-2.57
2023-02-27T01:44:45.043Z,-2.51
2023-02-27T01:44:55.068Z,-2.50
2023-02-27T01:45:05.066Z,-2.58
2023-02-27T01:45:15.046Z,-2.74
2023-02-27T01:45:25.068Z,-2.63
2023-02-27T01:45:35.114Z,-2.63
2023-02-27T01:45:45.065Z,-2.60
2023-02-27T01:45:55.128Z,-2.51
2023-02-27T01:46:05.157Z,-2.58
2023-02-27T01:46:15.085Z,-2.68
2023-02-27T01:46:25.062Z,-2.39
2023-02-27T01:46:35.048Z,-2.57
2023-02-27T01:46:45.967Z,-2.54
2023-02-27T01:46:55.395Z,-2.78
2023-02-27T01:47:05.055Z,-2.63
2023-02-27T01:47:15.883Z,-2.57
2023-02-27T01:47:25.070Z,-2.45
2023-02-27T01:47:35.035Z,-2.57
2023-02-27T01:47:45.044Z,-2.60
2023-02-27T01:47:55.043Z,-2.63
2023-02-27T01:48:05.076Z,-2.43
2023-02-27T01:48:15.041Z,-2.66
2023-02-27T01:48:25.076Z,-2.56
2023-02-27T01:48:35.032Z,-2.51
2023-02-27T01:48:45.051Z,-2.78
2023-02-27T01:48:55.908Z,-2.58
2023-02-27T01:49:05.030Z,-2.63
2023-02-27T01:49:15.049Z,-2.57
2023-02-27T01:49:25.072Z,-2.71
2023-02-27T01:49:35.034Z,-2.53
2023-02-27T01:49:45.128Z,-2.53
2023-02-27T01:49:55.052Z,-2.57
2023-02-27T01:50:05.037Z,-2.53
2023-02-27T01:50:15.038Z,-2.74
2023-02-27T01:50:25.076Z,-2.60
2023-02-27T01:50:35.042Z,-2.69
2023-02-27T01:50:45.059Z,-2.78
2023-02-27T01:50:55.124Z,-2.78
2023-02-27T01:51:05.022Z,-2.60
2023-02-27T01:51:15.033Z,-2.56
2023-02-27T01:51:25.443Z,-2.69
2023-02-27T01:51:35.040Z,-2.68
2023-02-27T01:51:45.026Z,-2.72
2023-02-27T01:51:55.036Z,-2.63
2023-02-27T01:52:05.093Z,-2.75
2023-02-27T01:52:15.016Z,-2.85
2023-02-27T01:52:25.015Z,-2.50
2023-02-27T01:52:35.044Z,-2.87
2023-02-27T01:52:45.027Z,-2.86
2023-02-27T01:52:55.033Z,-2.86
2023-02-27T01:53:05.080Z,-2.81
2023-02-27T01:53:15.055Z,-2.68
2023-02-27T01:53:25.019Z,-2.92
2023-02-27T01:53:35.055Z,-2.86
2023-02-27T01:53:45.018Z,-2.90
2023-02-27T01:53:55.014Z,-2.85
2023-02-27T01:54:05.046Z,-2.76
2023-02-27T01:54:15.005Z,-2.90
2023-02-27T01:54:25.027Z,-2.93
2023-02-27T01:54:35.096Z,-2.90
2023-02-27T01:54:45.004Z,-2.94
2023-02-27T01:54:55.110Z,-2.75
2023-02-27T01:55:05.915Z,-2.92
2023-02-27T01:55:15.005Z,-2.71
2023-02-27T01:55:25.040Z,-2.82
2023-02-27T01:55:35.018Z,-3.05
2023-02-27T01:55:45.009Z,-2.71
2023-02-27T01:55:55.020Z,-2.93
2023-02-27T01:56:05.018Z,-2.94
2023-02-27T01:56:15.020Z,-2.89
2023-02-27T01:56:25.046Z,-2.71
2023-02-27T01:56:35.020Z,-2.86
2023-02-27T01:56:45.019Z,-2.90
2023-02-27T01:56:55.053Z,-2.90
2023-02-27T01:57:05.022Z,-2.78
2023-02-27T01:57:15.126Z,-2.86
2023-02-27T01:57:25.013Z,-2.99
2023-02-27T01:57:35.011Z,-2.75
2023-02-27T01:57:45.010Z,-2.85
2023-02-27T01:57:55.107Z,-2.93
2023-02-27T01:58:05.036Z,-2.89
2023-02-27T01:58:15.032Z,-2.86
2023-02-27T01:58:25.031Z,-2.76
2023-02-27T01:58:35.899Z,-2.90
2023-02-27T01:58:45.010Z,-2.81
2023-02-27T01:58:55.002Z,-2.86
2023-02-27T01:59:05.005Z,-2.82
2023-02-27T01:59:15.028Z,-2.92
2023-02-27T01:59:25.015Z,-2.87
2023-02-27T01:59:35.036Z,-2.87
2023-02-27T01:59:45.024Z,-2.92
2023-02-27T01:59:54.991Z,-3.05
2023-02-27T02:00:05.144Z,-2.97
2023-02-27T02:00:15.002Z,-2.86
2023-02-27T02:00:24.997Z,-2.93
2023-02-27T02:00:34.986Z,-2.86
2023-02-27T02:00:45.054Z,-2.81
2023-02-27T02:00:57.910Z,-2.74
2023-02-27T02:01:05.050Z,-2.96
2023-02-27T02:01:15.092Z,-2.94
2023-02-27T02:01:25.404Z,-2.68
2023-02-27T02:01:35.074Z,-2.92
2023-02-27T02:01:44.994Z,-2.71
2023-02-27T02:01:55.001Z,-2.64
2023-02-27T02:02:06.008Z,-2.69
2023-02-27T02:02:15.023Z,-2.89
2023-02-27T02:02:25.085Z,-2.76
2023-02-27T02:02:35.048Z,-2.89
2023-02-27T02:02:44.990Z,-2.82
2023-02-27T02:02:54.997Z,-2.61
2023-02-27T02:03:04.998Z,-2.94
2023-02-27T02:03:14.976Z,-2.81
2023-02-27T02:03:25.910Z,-2.81
2023-02-27T02:03:35.059Z,-2.89
2023-02-27T02:03:44.978Z,-2.86
2023-02-27T02:03:54.979Z,-2.72
2023-02-27T02:04:04.977Z,-2.75
2023-02-27T02:04:14.992Z,-2.79
2023-02-27T02:04:24.985Z,-2.76
2023-02-27T02:04:34.992Z,-2.68
2023-02-27T02:04:44.977Z,-2.76
2023-02-27T02:04:54.990Z,-2.94
2023-02-27T02:05:05.007Z,-2.85
2023-02-27T02:05:14.969Z,-2.79
2023-02-27T02:05:25.041Z,-2.76
2023-02-27T02:05:35.035Z,-2.85
2023-02-27T02:05:44.984Z,-2.68
2023-02-27T02:05:54.970Z,-2.81
2023-02-27T02:06:04.964Z,-2.79
2023-02-27T02:06:14.983Z,-2.79
2023-02-27T02:06:24.960Z,-3.07
2023-02-27T02:06:34.973Z,-2.87
2023-02-27T02:06:44.969Z,-2.79
2023-02-27T02:06:54.999Z,-2.78
2023-02-27T02:07:05.006Z,-2.82
2023-02-27T02:07:14.987Z,-2.92
2023-02-27T02:07:24.963Z,-2.96
2023-02-27T02:07:35.447Z,-2.94
2023-02-27T02:07:44.976Z,-2.85
2023-02-27T02:07:55.025Z,-3.13
2023-02-27T02:08:04.965Z,-2.94
2023-02-27T02:08:14.963Z,-2.89
2023-02-27T02:08:24.958Z,-2.89
2023-02-27T02:08:34.964Z,-2.87
2023-02-27T02:08:44.994Z,-2.93